sensor_id;sensor_type;location;lat;lon;timestamp;temperature;humidity
5086;DHT22;4715;51.660;7.082;2023-03-14T00:01:18;12.50;99.90
5086;DHT22;4715;51.660;7.082;2023-03-14T00:03:41;12.50;99.90
5086;DHT22;4715;51.660;7.082;2023-03-14T00:06:04;12.50;99.90
5086;DHT22;4715;51.660;7.082;2023-03-14T00:08:26;12.50;99.90
5086;DHT22;4715;51.660;7.082;2023-03-14T00:10:48;12.50;99.90
5086;DHT22;4715;51.660;7.082;2023-03-14T00:13:11;12.40;99.90
5086;DHT22;4715;51.660;7.082;2023-03-14T00:15:33;12.40;99.90
5086;DHT22;4715;51.660;7.082;2023-03-14T00:17:55;12.40;99.90
5086;DHT22;4715;51.660;7.082;2023-03-14T00:20:17;12.30;99.90
5086;DHT22;4715;51.660;7.082;2023-03-14T00:22:39;12.30;99.90
5086;DHT22;4715;51.660;7.082;2023-03-14T00:25:01;12.30;99.90
5086;DHT22;4715;51.660;7.082;2023-03-14T00:27:23;12.30;99.90
5086;DHT22;4715;51.660;7.082;2023-03-14T00:29:46;12.20;99.90
5086;DHT22;4715;51.660;7.082;2023-03-14T00:32:08;12.20;99.90
5086;DHT22;4715;51.660;7.082;2023-03-14T00:34:30;12.20;99.90
5086;DHT22;4715;51.660;7.082;2023-03-14T00:36:52;12.20;99.90
5086;DHT22;4715;51.660;7.082;2023-03-14T00:39:14;12.20;99.90
5086;DHT22;4715;51.660;7.082;2023-03-14T00:41:36;12.20;99.90
5086;DHT22;4715;51.660;7.082;2023-03-14T00:43:58;12.20;99.90
5086;DHT22;4715;51.660;7.082;2023-03-14T00:46:21;12.20;99.90
5086;DHT22;4715;51.660;7.082;2023-03-14T00:48:44;12.20;99.90
5086;DHT22;4715;51.660;7.082;2023-03-14T00:51:08;12.20;99.90
5086;DHT22;4715;51.660;7.082;2023-03-14T00:53:30;12.20;99.90
5086;DHT22;4715;51.660;7.082;2023-03-14T00:55:52;12.20;99.90
5086;DHT22;4715;51.660;7.082;2023-03-14T00:58:15;12.20;99.90
5086;DHT22;4715;51.660;7.082;2023-03-14T01:00:38;12.20;99.90
5086;DHT22;4715;51.660;7.082;2023-03-14T01:03:01;12.20;99.90
5086;DHT22;4715;51.660;7.082;2023-03-14T01:05:23;12.30;99.90
5086;DHT22;4715;51.660;7.082;2023-03-14T01:07:45;12.20;99.90
5086;DHT22;4715;51.660;7.082;2023-03-14T01:10:08;12.10;99.90
5086;DHT22;4715;51.660;7.082;2023-03-14T01:12:30;11.80;99.90
5086;DHT22;4715;51.660;7.082;2023-03-14T01:14:52;11.60;99.90
5086;DHT22;4715;51.660;7.082;2023-03-14T01:17:14;11.40;99.90
5086;DHT22;4715;51.660;7.082;2023-03-14T01:19:37;11.30;99.90
5086;DHT22;4715;51.660;7.082;2023-03-14T01:21:59;11.10;99.90
5086;DHT22;4715;51.660;7.082;2023-03-14T01:24:20;11.10;99.90
5086;DHT22;4715;51.660;7.082;2023-03-14T01:26:42;11.00;99.90
5086;DHT22;4715;51.660;7.082;2023-03-14T01:29:04;11.00;99.90
5086;DHT22;4715;51.660;7.082;2023-03-14T01:31:27;10.90;99.90
5086;DHT22;4715;51.660;7.082;2023-03-14T01:33:49;10.90;99.90
5086;DHT22;4715;51.660;7.082;2023-03-14T01:36:12;10.90;99.90
5086;DHT22;4715;51.660;7.082;2023-03-14T01:38:36;10.80;99.90
5086;DHT22;4715;51.660;7.082;2023-03-14T01:40:58;10.90;99.90
5086;DHT22;4715;51.660;7.082;2023-03-14T01:43:20;10.90;99.90
5086;DHT22;4715;51.660;7.082;2023-03-14T01:48:45;11.00;99.90
5086;DHT22;4715;51.660;7.082;2023-03-14T01:51:12;10.90;99.90
5086;DHT22;4715;51.660;7.082;2023-03-14T01:53:37;10.90;99.90
5086;DHT22;4715;51.660;7.082;2023-03-14T01:56:00;10.90;99.90
5086;DHT22;4715;51.660;7.082;2023-03-14T01:58:25;10.90;99.90
5086;DHT22;4715;51.660;7.082;2023-03-14T02:00:49;10.90;99.90
5086;DHT22;4715;51.660;7.082;2023-03-14T02:03:15;10.90;99.90
5086;DHT22;4715;51.660;7.082;2023-03-14T02:05:39;10.90;99.90
5086;DHT22;4715;51.660;7.082;2023-03-14T02:08:05;10.90;99.90
5086;DHT22;4715;51.660;7.082;2023-03-14T02:10:31;10.90;99.90
5086;DHT22;4715;51.660;7.082;2023-03-14T02:12:55;10.90;99.90
5086;DHT22;4715;51.660;7.082;2023-03-14T02:15:18;10.80;99.90
5086;DHT22;4715;51.660;7.082;2023-03-14T02:17:41;10.80;99.90
5086;DHT22;4715;51.660;7.082;2023-03-14T02:20:13;10.80;99.90
5086;DHT22;4715;51.660;7.082;2023-03-14T02:22:38;10.70;99.90
5086;DHT22;4715;51.660;7.082;2023-03-14T02:25:08;10.70;99.90
5086;DHT22;4715;51.660;7.082;2023-03-14T02:27:34;10.70;99.90
5086;DHT22;4715;51.660;7.082;2023-03-14T02:29:58;10.70;99.90
5086;DHT22;4715;51.660;7.082;2023-03-14T02:32:22;10.70;99.90
5086;DHT22;4715;51.660;7.082;2023-03-14T02:34:48;10.70;99.90
5086;DHT22;4715;51.660;7.082;2023-03-14T02:37:13;10.70;99.90
5086;DHT22;4715;51.660;7.082;2023-03-14T02:39:40;10.70;99.90
5086;DHT22;4715;51.660;7.082;2023-03-14T02:42:04;10.70;99.90
5086;DHT22;4715;51.660;7.082;2023-03-14T02:44:28;10.70;99.90
5086;DHT22;4715;51.660;7.082;2023-03-14T02:46:49;10.70;99.90
5086;DHT22;4715;51.660;7.082;2023-03-14T02:49:13;10.80;99.90
5086;DHT22;4715;51.660;7.082;2023-03-14T02:51:36;10.80;99.90
5086;DHT22;4715;51.660;7.082;2023-03-14T02:53:58;10.80;99.90
5086;DHT22;4715;51.660;7.082;2023-03-14T02:56:20;10.80;99.90
5086;DHT22;4715;51.660;7.082;2023-03-14T02:58:42;10.80;99.90
5086;DHT22;4715;51.660;7.082;2023-03-14T03:01:05;10.80;99.90
5086;DHT22;4715;51.660;7.082;2023-03-14T03:03:27;10.80;99.90
5086;DHT22;4715;51.660;7.082;2023-03-14T03:05:50;10.80;99.90
5086;DHT22;4715;51.660;7.082;2023-03-14T03:08:12;10.80;99.90
5086;DHT22;4715;51.660;7.082;2023-03-14T03:10:34;10.80;99.90
5086;DHT22;4715;51.660;7.082;2023-03-14T03:12:55;10.80;99.90
5086;DHT22;4715;51.660;7.082;2023-03-14T03:15:18;10.80;99.90
5086;DHT22;4715;51.660;7.082;2023-03-14T03:17:41;10.80;99.90
5086;DHT22;4715;51.660;7.082;2023-03-14T03:20:03;10.80;99.90
5086;DHT22;4715;51.660;7.082;2023-03-14T03:22:29;10.80;99.90
5086;DHT22;4715;51.660;7.082;2023-03-14T03:24:51;10.70;99.90
5086;DHT22;4715;51.660;7.082;2023-03-14T03:27:12;10.70;99.90
5086;DHT22;4715;51.660;7.082;2023-03-14T03:29:34;10.70;99.90
5086;DHT22;4715;51.660;7.082;2023-03-14T03:31:56;10.70;99.90
5086;DHT22;4715;51.660;7.082;2023-03-14T03:34:19;10.70;99.90
5086;DHT22;4715;51.660;7.082;2023-03-14T03:36:41;10.80;99.90
5086;DHT22;4715;51.660;7.082;2023-03-14T03:39:03;10.70;99.90
5086;DHT22;4715;51.660;7.082;2023-03-14T03:41:25;10.80;99.90
5086;DHT22;4715;51.660;7.082;2023-03-14T03:43:47;10.80;99.90
5086;DHT22;4715;51.660;7.082;2023-03-14T03:46:10;10.70;99.90
5086;DHT22;4715;51.660;7.082;2023-03-14T03:48:32;10.70;99.90
5086;DHT22;4715;51.660;7.082;2023-03-14T03:50:55;10.80;99.90
5086;DHT22;4715;51.660;7.082;2023-03-14T03:53:17;10.80;99.90
5086;DHT22;4715;51.660;7.082;2023-03-14T03:55:40;10.80;99.90
5086;DHT22;4715;51.660;7.082;2023-03-14T03:58:02;10.80;99.90
5086;DHT22;4715;51.660;7.082;2023-03-14T04:00:24;10.80;99.90
5086;DHT22;4715;51.660;7.082;2023-03-14T04:02:46;10.90;99.90
5086;DHT22;4715;51.660;7.082;2023-03-14T04:05:08;10.90;99.90
5086;DHT22;4715;51.660;7.082;2023-03-14T04:07:32;10.90;99.90
5086;DHT22;4715;51.660;7.082;2023-03-14T04:09:54;10.90;99.90
5086;DHT22;4715;51.660;7.082;2023-03-14T04:12:16;10.90;99.90
5086;DHT22;4715;51.660;7.082;2023-03-14T04:14:38;10.90;99.90
5086;DHT22;4715;51.660;7.082;2023-03-14T04:17:01;10.90;99.90
5086;DHT22;4715;51.660;7.082;2023-03-14T04:19:23;10.90;99.90
5086;DHT22;4715;51.660;7.082;2023-03-14T04:21:45;10.90;99.90
5086;DHT22;4715;51.660;7.082;2023-03-14T04:24:08;10.90;99.90
5086;DHT22;4715;51.660;7.082;2023-03-14T04:26:30;10.90;99.90
5086;DHT22;4715;51.660;7.082;2023-03-14T04:28:52;10.90;99.90
5086;DHT22;4715;51.660;7.082;2023-03-14T04:31:17;10.80;99.90
5086;DHT22;4715;51.660;7.082;2023-03-14T04:33:39;10.80;99.90
5086;DHT22;4715;51.660;7.082;2023-03-14T04:36:01;10.80;99.90
5086;DHT22;4715;51.660;7.082;2023-03-14T04:38:23;10.70;99.90
5086;DHT22;4715;51.660;7.082;2023-03-14T04:40:46;10.70;99.90
5086;DHT22;4715;51.660;7.082;2023-03-14T04:43:08;10.70;99.90
5086;DHT22;4715;51.660;7.082;2023-03-14T04:45:31;10.70;99.90
5086;DHT22;4715;51.660;7.082;2023-03-14T04:47:53;10.60;99.90
5086;DHT22;4715;51.660;7.082;2023-03-14T04:50:15;10.60;99.90
5086;DHT22;4715;51.660;7.082;2023-03-14T04:52:37;10.60;99.90
5086;DHT22;4715;51.660;7.082;2023-03-14T04:54:59;10.60;99.90
5086;DHT22;4715;51.660;7.082;2023-03-14T04:57:22;10.60;99.90
5086;DHT22;4715;51.660;7.082;2023-03-14T04:59:44;10.50;99.90
5086;DHT22;4715;51.660;7.082;2023-03-14T05:02:05;10.50;99.90
5086;DHT22;4715;51.660;7.082;2023-03-14T05:04:28;10.50;99.90
5086;DHT22;4715;51.660;7.082;2023-03-14T05:06:49;10.40;99.90
5086;DHT22;4715;51.660;7.082;2023-03-14T05:09:11;10.40;99.90
5086;DHT22;4715;51.660;7.082;2023-03-14T05:11:33;10.30;99.90
5086;DHT22;4715;51.660;7.082;2023-03-14T05:13:57;10.20;99.90
5086;DHT22;4715;51.660;7.082;2023-03-14T05:16:18;10.10;99.90
5086;DHT22;4715;51.660;7.082;2023-03-14T05:18:40;10.00;99.90
5086;DHT22;4715;51.660;7.082;2023-03-14T05:21:02;9.90;99.90
5086;DHT22;4715;51.660;7.082;2023-03-14T05:23:25;9.90;99.90
5086;DHT22;4715;51.660;7.082;2023-03-14T05:25:46;9.90;99.90
5086;DHT22;4715;51.660;7.082;2023-03-14T05:28:08;9.90;99.90
5086;DHT22;4715;51.660;7.082;2023-03-14T05:30:31;9.90;99.90
5086;DHT22;4715;51.660;7.082;2023-03-14T05:32:54;9.80;99.90
5086;DHT22;4715;51.660;7.082;2023-03-14T05:35:16;9.70;99.90
5086;DHT22;4715;51.660;7.082;2023-03-14T05:37:38;9.60;99.90
5086;DHT22;4715;51.660;7.082;2023-03-14T05:40:00;9.60;99.90
5086;DHT22;4715;51.660;7.082;2023-03-14T05:42:23;9.50;99.90
5086;DHT22;4715;51.660;7.082;2023-03-14T05:44:45;9.50;99.90
5086;DHT22;4715;51.660;7.082;2023-03-14T05:47:08;9.40;99.90
5086;DHT22;4715;51.660;7.082;2023-03-14T05:49:29;9.40;99.90
5086;DHT22;4715;51.660;7.082;2023-03-14T05:51:51;9.30;99.90
5086;DHT22;4715;51.660;7.082;2023-03-14T05:54:13;9.30;99.90
5086;DHT22;4715;51.660;7.082;2023-03-14T05:56:35;9.20;99.90
5086;DHT22;4715;51.660;7.082;2023-03-14T05:58:57;9.20;99.90
5086;DHT22;4715;51.660;7.082;2023-03-14T06:01:19;9.20;99.90
5086;DHT22;4715;51.660;7.082;2023-03-14T06:03:42;9.20;99.90
5086;DHT22;4715;51.660;7.082;2023-03-14T06:06:04;9.20;99.90
5086;DHT22;4715;51.660;7.082;2023-03-14T06:08:26;9.20;99.90
5086;DHT22;4715;51.660;7.082;2023-03-14T06:10:48;9.20;99.90
5086;DHT22;4715;51.660;7.082;2023-03-14T06:13:10;9.20;99.90
5086;DHT22;4715;51.660;7.082;2023-03-14T06:15:33;9.30;99.90
5086;DHT22;4715;51.660;7.082;2023-03-14T06:17:56;9.30;99.90
5086;DHT22;4715;51.660;7.082;2023-03-14T06:20:19;9.30;99.90
5086;DHT22;4715;51.660;7.082;2023-03-14T06:22:41;9.30;99.90
5086;DHT22;4715;51.660;7.082;2023-03-14T06:25:03;9.30;99.90
5086;DHT22;4715;51.660;7.082;2023-03-14T06:27:25;9.40;99.90
5086;DHT22;4715;51.660;7.082;2023-03-14T06:29:47;9.40;99.90
5086;DHT22;4715;51.660;7.082;2023-03-14T06:32:09;9.40;99.90
5086;DHT22;4715;51.660;7.082;2023-03-14T06:34:31;9.50;99.90
5086;DHT22;4715;51.660;7.082;2023-03-14T06:36:54;9.50;99.90
5086;DHT22;4715;51.660;7.082;2023-03-14T06:39:16;9.50;99.90
5086;DHT22;4715;51.660;7.082;2023-03-14T06:41:38;9.50;99.90
5086;DHT22;4715;51.660;7.082;2023-03-14T06:44:00;9.50;99.90
5086;DHT22;4715;51.660;7.082;2023-03-14T06:46:22;9.50;99.90
5086;DHT22;4715;51.660;7.082;2023-03-14T06:48:44;9.50;99.90
5086;DHT22;4715;51.660;7.082;2023-03-14T06:51:06;9.50;99.90
5086;DHT22;4715;51.660;7.082;2023-03-14T06:53:29;9.50;99.90
5086;DHT22;4715;51.660;7.082;2023-03-14T06:55:51;9.60;99.90
5086;DHT22;4715;51.660;7.082;2023-03-14T06:58:13;9.60;99.90
5086;DHT22;4715;51.660;7.082;2023-03-14T07:00:35;9.50;99.90
5086;DHT22;4715;51.660;7.082;2023-03-14T07:02:57;9.50;99.90
5086;DHT22;4715;51.660;7.082;2023-03-14T07:05:19;9.50;99.90
5086;DHT22;4715;51.660;7.082;2023-03-14T07:07:41;9.50;99.90
5086;DHT22;4715;51.660;7.082;2023-03-14T07:10:05;9.50;99.90
5086;DHT22;4715;51.660;7.082;2023-03-14T07:12:29;9.50;99.90
5086;DHT22;4715;51.660;7.082;2023-03-14T07:14:51;9.50;99.90
5086;DHT22;4715;51.660;7.082;2023-03-14T07:17:13;9.50;99.90
5086;DHT22;4715;51.660;7.082;2023-03-14T07:19:35;9.60;99.90
5086;DHT22;4715;51.660;7.082;2023-03-14T07:21:58;9.60;99.90
5086;DHT22;4715;51.660;7.082;2023-03-14T07:24:22;9.60;99.90
5086;DHT22;4715;51.660;7.082;2023-03-14T07:26:52;9.70;99.90
5086;DHT22;4715;51.660;7.082;2023-03-14T07:29:14;9.70;99.90
5086;DHT22;4715;51.660;7.082;2023-03-14T07:31:36;9.80;99.90
5086;DHT22;4715;51.660;7.082;2023-03-14T07:33:58;9.80;99.90
5086;DHT22;4715;51.660;7.082;2023-03-14T07:36:20;9.80;99.90
5086;DHT22;4715;51.660;7.082;2023-03-14T07:38:42;9.80;99.90
5086;DHT22;4715;51.660;7.082;2023-03-14T07:41:05;9.80;99.90
5086;DHT22;4715;51.660;7.082;2023-03-14T07:43:29;9.80;99.90
5086;DHT22;4715;51.660;7.082;2023-03-14T07:45:51;9.70;99.90
5086;DHT22;4715;51.660;7.082;2023-03-14T07:48:13;9.70;99.90
5086;DHT22;4715;51.660;7.082;2023-03-14T07:50:35;9.70;99.90
5086;DHT22;4715;51.660;7.082;2023-03-14T07:52:57;9.70;99.90
5086;DHT22;4715;51.660;7.082;2023-03-14T07:55:18;9.70;99.90
5086;DHT22;4715;51.660;7.082;2023-03-14T07:57:40;9.80;99.90
5086;DHT22;4715;51.660;7.082;2023-03-14T08:00:05;9.80;99.90
5086;DHT22;4715;51.660;7.082;2023-03-14T08:02:27;9.90;99.90
5086;DHT22;4715;51.660;7.082;2023-03-14T08:04:49;9.90;99.90
5086;DHT22;4715;51.660;7.082;2023-03-14T08:07:11;10.00;99.90
5086;DHT22;4715;51.660;7.082;2023-03-14T08:09:32;10.00;99.90
5086;DHT22;4715;51.660;7.082;2023-03-14T08:11:54;10.00;99.90
5086;DHT22;4715;51.660;7.082;2023-03-14T08:14:16;10.10;99.90
5086;DHT22;4715;51.660;7.082;2023-03-14T08:16:39;10.10;99.90
5086;DHT22;4715;51.660;7.082;2023-03-14T08:19:01;10.20;99.90
5086;DHT22;4715;51.660;7.082;2023-03-14T08:21:24;10.10;99.90
5086;DHT22;4715;51.660;7.082;2023-03-14T08:23:45;10.20;99.90
5086;DHT22;4715;51.660;7.082;2023-03-14T08:26:08;10.20;99.90
5086;DHT22;4715;51.660;7.082;2023-03-14T08:28:29;10.20;99.90
5086;DHT22;4715;51.660;7.082;2023-03-14T08:30:55;10.30;99.90
5086;DHT22;4715;51.660;7.082;2023-03-14T08:33:18;10.30;99.90
5086;DHT22;4715;51.660;7.082;2023-03-14T08:35:40;10.40;99.90
5086;DHT22;4715;51.660;7.082;2023-03-14T08:38:02;10.50;99.90
5086;DHT22;4715;51.660;7.082;2023-03-14T08:40:24;10.60;99.90
5086;DHT22;4715;51.660;7.082;2023-03-14T08:42:47;10.70;99.90
5086;DHT22;4715;51.660;7.082;2023-03-14T08:45:11;10.70;99.90
5086;DHT22;4715;51.660;7.082;2023-03-14T08:47:35;10.80;99.90
5086;DHT22;4715;51.660;7.082;2023-03-14T08:49:58;10.80;99.90
5086;DHT22;4715;51.660;7.082;2023-03-14T08:52:20;10.90;99.90
5086;DHT22;4715;51.660;7.082;2023-03-14T08:54:43;10.90;99.90
5086;DHT22;4715;51.660;7.082;2023-03-14T08:57:05;11.00;99.90
5086;DHT22;4715;51.660;7.082;2023-03-14T08:59:27;11.00;99.90
5086;DHT22;4715;51.660;7.082;2023-03-14T09:01:49;11.10;99.90
5086;DHT22;4715;51.660;7.082;2023-03-14T09:04:11;11.10;99.90
5086;DHT22;4715;51.660;7.082;2023-03-14T09:06:35;11.10;99.90
5086;DHT22;4715;51.660;7.082;2023-03-14T09:08:57;11.10;99.90
5086;DHT22;4715;51.660;7.082;2023-03-14T09:11:19;11.00;99.90
5086;DHT22;4715;51.660;7.082;2023-03-14T09:13:41;11.00;99.90
5086;DHT22;4715;51.660;7.082;2023-03-14T09:16:04;11.00;99.90
5086;DHT22;4715;51.660;7.082;2023-03-14T09:18:26;11.00;99.90
5086;DHT22;4715;51.660;7.082;2023-03-14T09:20:53;11.00;99.90
5086;DHT22;4715;51.660;7.082;2023-03-14T09:23:18;10.80;99.90
5086;DHT22;4715;51.660;7.082;2023-03-14T09:25:40;10.50;99.90
5086;DHT22;4715;51.660;7.082;2023-03-14T09:28:02;10.30;99.90
5086;DHT22;4715;51.660;7.082;2023-03-14T09:30:23;10.10;99.90
5086;DHT22;4715;51.660;7.082;2023-03-14T09:32:45;9.90;99.90
5086;DHT22;4715;51.660;7.082;2023-03-14T09:35:08;9.70;99.90
5086;DHT22;4715;51.660;7.082;2023-03-14T09:37:30;9.60;99.90
5086;DHT22;4715;51.660;7.082;2023-03-14T09:39:53;9.50;99.90
5086;DHT22;4715;51.660;7.082;2023-03-14T09:42:17;9.40;99.90
5086;DHT22;4715;51.660;7.082;2023-03-14T09:44:47;9.30;99.90
5086;DHT22;4715;51.660;7.082;2023-03-14T09:47:13;9.20;99.90
5086;DHT22;4715;51.660;7.082;2023-03-14T09:49:39;9.10;99.90
5086;DHT22;4715;51.660;7.082;2023-03-14T09:52:05;9.10;99.90
5086;DHT22;4715;51.660;7.082;2023-03-14T09:54:35;9.00;99.90
5086;DHT22;4715;51.660;7.082;2023-03-14T09:56:59;9.00;99.90
5086;DHT22;4715;51.660;7.082;2023-03-14T09:59:21;9.00;99.90
5086;DHT22;4715;51.660;7.082;2023-03-14T10:01:42;9.10;99.90
5086;DHT22;4715;51.660;7.082;2023-03-14T10:04:10;9.10;99.90
5086;DHT22;4715;51.660;7.082;2023-03-14T10:06:32;9.10;99.90
5086;DHT22;4715;51.660;7.082;2023-03-14T10:08:55;9.10;99.90
5086;DHT22;4715;51.660;7.082;2023-03-14T10:11:18;9.10;99.90
5086;DHT22;4715;51.660;7.082;2023-03-14T10:14:03;9.00;99.90
5086;DHT22;4715;51.660;7.082;2023-03-14T10:16:29;9.00;99.90
5086;DHT22;4715;51.660;7.082;2023-03-14T10:18:52;9.00;99.90
5086;DHT22;4715;51.660;7.082;2023-03-14T10:21:21;8.90;99.90
5086;DHT22;4715;51.660;7.082;2023-03-14T10:23:47;9.00;99.90
5086;DHT22;4715;51.660;7.082;2023-03-14T10:26:13;9.00;99.90
5086;DHT22;4715;51.660;7.082;2023-03-14T10:28:39;9.00;99.90
5086;DHT22;4715;51.660;7.082;2023-03-14T10:31:03;9.00;99.90
5086;DHT22;4715;51.660;7.082;2023-03-14T10:33:27;8.90;99.90
5086;DHT22;4715;51.660;7.082;2023-03-14T10:35:53;8.90;99.90
5086;DHT22;4715;51.660;7.082;2023-03-14T10:38:17;8.80;99.90
5086;DHT22;4715;51.660;7.082;2023-03-14T10:40:40;8.70;99.90
5086;DHT22;4715;51.660;7.082;2023-03-14T10:43:04;8.70;99.90
5086;DHT22;4715;51.660;7.082;2023-03-14T10:45:36;8.60;99.90
5086;DHT22;4715;51.660;7.082;2023-03-14T10:48:07;8.50;99.90
5086;DHT22;4715;51.660;7.082;2023-03-14T10:50:37;8.50;99.90
5086;DHT22;4715;51.660;7.082;2023-03-14T10:53:02;8.40;99.90
5086;DHT22;4715;51.660;7.082;2023-03-14T10:55:25;8.40;99.90
5086;DHT22;4715;51.660;7.082;2023-03-14T10:57:48;8.40;99.90
5086;DHT22;4715;51.660;7.082;2023-03-14T11:00:15;8.40;99.90
5086;DHT22;4715;51.660;7.082;2023-03-14T11:02:49;8.30;99.90
5086;DHT22;4715;51.660;7.082;2023-03-14T11:05:25;8.30;99.90
5086;DHT22;4715;51.660;7.082;2023-03-14T11:07:48;8.30;99.90
5086;DHT22;4715;51.660;7.082;2023-03-14T11:10:19;8.30;99.90
5086;DHT22;4715;51.660;7.082;2023-03-14T11:12:48;8.40;99.90
5086;DHT22;4715;51.660;7.082;2023-03-14T11:15:19;8.50;99.90
5086;DHT22;4715;51.660;7.082;2023-03-14T11:17:50;8.70;99.90
5086;DHT22;4715;51.660;7.082;2023-03-14T11:20:29;8.70;99.90
5086;DHT22;4715;51.660;7.082;2023-03-14T11:22:57;8.70;99.90
5086;DHT22;4715;51.660;7.082;2023-03-14T11:25:26;8.70;99.90
5086;DHT22;4715;51.660;7.082;2023-03-14T11:27:58;8.60;99.90
5086;DHT22;4715;51.660;7.082;2023-03-14T11:30:25;8.60;99.90
5086;DHT22;4715;51.660;7.082;2023-03-14T11:32:55;8.70;99.90
5086;DHT22;4715;51.660;7.082;2023-03-14T11:35:25;8.70;99.90
5086;DHT22;4715;51.660;7.082;2023-03-14T11:37:55;8.60;99.90
5086;DHT22;4715;51.660;7.082;2023-03-14T11:40:22;8.50;99.90
5086;DHT22;4715;51.660;7.082;2023-03-14T11:42:49;8.40;99.90
5086;DHT22;4715;51.660;7.082;2023-03-14T11:45:16;8.40;99.90
5086;DHT22;4715;51.660;7.082;2023-03-14T11:47:40;8.40;99.90
5086;DHT22;4715;51.660;7.082;2023-03-14T11:50:12;8.40;99.90
5086;DHT22;4715;51.660;7.082;2023-03-14T11:52:41;8.40;99.90
5086;DHT22;4715;51.660;7.082;2023-03-14T11:55:11;8.30;99.90
5086;DHT22;4715;51.660;7.082;2023-03-14T11:57:34;8.20;99.90
5086;DHT22;4715;51.660;7.082;2023-03-14T12:00:00;8.10;99.90
5086;DHT22;4715;51.660;7.082;2023-03-14T12:02:27;8.20;99.90
5086;DHT22;4715;51.660;7.082;2023-03-14T12:08:16;8.40;99.90
5086;DHT22;4715;51.660;7.082;2023-03-14T12:10:45;8.40;99.90
5086;DHT22;4715;51.660;7.082;2023-03-14T12:13:09;8.50;99.90
5086;DHT22;4715;51.660;7.082;2023-03-14T12:15:36;8.60;99.90
5086;DHT22;4715;51.660;7.082;2023-03-14T12:18:00;8.70;99.90
5086;DHT22;4715;51.660;7.082;2023-03-14T12:20:23;8.80;99.90
5086;DHT22;4715;51.660;7.082;2023-03-14T12:22:47;9.00;99.90
5086;DHT22;4715;51.660;7.082;2023-03-14T12:25:17;9.10;99.90
5086;DHT22;4715;51.660;7.082;2023-03-14T12:27:46;9.20;99.90
5086;DHT22;4715;51.660;7.082;2023-03-14T12:30:17;9.20;99.90
5086;DHT22;4715;51.660;7.082;2023-03-14T12:32:41;9.10;99.90
5086;DHT22;4715;51.660;7.082;2023-03-14T12:37:49;8.90;99.90
5086;DHT22;4715;51.660;7.082;2023-03-14T12:40:19;8.60;99.90
5086;DHT22;4715;51.660;7.082;2023-03-14T12:42:50;8.30;99.90
5086;DHT22;4715;51.660;7.082;2023-03-14T12:45:23;8.10;99.90
5086;DHT22;4715;51.660;7.082;2023-03-14T12:47:54;7.90;99.90
5086;DHT22;4715;51.660;7.082;2023-03-14T12:50:25;7.80;99.90
5086;DHT22;4715;51.660;7.082;2023-03-14T12:56:20;7.80;99.90
5086;DHT22;4715;51.660;7.082;2023-03-14T12:58:57;7.80;99.90
5086;DHT22;4715;51.660;7.082;2023-03-14T13:01:22;7.90;99.90
5086;DHT22;4715;51.660;7.082;2023-03-14T13:03:46;8.00;99.90
5086;DHT22;4715;51.660;7.082;2023-03-14T13:06:09;8.00;99.90
5086;DHT22;4715;51.660;7.082;2023-03-14T13:08:37;8.10;99.90
5086;DHT22;4715;51.660;7.082;2023-03-14T13:11:01;8.00;99.90
5086;DHT22;4715;51.660;7.082;2023-03-14T13:13:26;8.00;99.90
5086;DHT22;4715;51.660;7.082;2023-03-14T13:15:53;7.90;99.90
5086;DHT22;4715;51.660;7.082;2023-03-14T13:18:26;7.80;99.90
5086;DHT22;4715;51.660;7.082;2023-03-14T13:20:51;7.70;99.90
5086;DHT22;4715;51.660;7.082;2023-03-14T13:23:22;7.70;99.90
5086;DHT22;4715;51.660;7.082;2023-03-14T13:25:45;7.80;99.90
5086;DHT22;4715;51.660;7.082;2023-03-14T13:28:10;8.00;99.90
5086;DHT22;4715;51.660;7.082;2023-03-14T13:30:42;8.20;99.90
5086;DHT22;4715;51.660;7.082;2023-03-14T13:33:05;8.40;99.90
5086;DHT22;4715;51.660;7.082;2023-03-14T13:35:29;8.60;99.90
5086;DHT22;4715;51.660;7.082;2023-03-14T13:38:00;8.80;99.90
5086;DHT22;4715;51.660;7.082;2023-03-14T13:40:26;9.00;99.90
5086;DHT22;4715;51.660;7.082;2023-03-14T13:43:01;9.20;99.90
5086;DHT22;4715;51.660;7.082;2023-03-14T13:45:24;9.30;99.90
5086;DHT22;4715;51.660;7.082;2023-03-14T13:47:48;9.30;99.90
5086;DHT22;4715;51.660;7.082;2023-03-14T13:50:17;9.40;99.90
5086;DHT22;4715;51.660;7.082;2023-03-14T13:52:39;9.40;99.90
5086;DHT22;4715;51.660;7.082;2023-03-14T13:55:03;9.50;99.90
5086;DHT22;4715;51.660;7.082;2023-03-14T13:57:25;9.70;99.90
5086;DHT22;4715;51.660;7.082;2023-03-14T13:59:59;10.00;99.90
5086;DHT22;4715;51.660;7.082;2023-03-14T14:02:23;10.30;99.90
5086;DHT22;4715;51.660;7.082;2023-03-14T14:04:47;10.40;99.90
5086;DHT22;4715;51.660;7.082;2023-03-14T14:07:10;10.50;99.90
5086;DHT22;4715;51.660;7.082;2023-03-14T14:09:38;10.50;99.90
5086;DHT22;4715;51.660;7.082;2023-03-14T14:12:02;10.40;99.90
5086;DHT22;4715;51.660;7.082;2023-03-14T14:14:30;10.30;99.90
5086;DHT22;4715;51.660;7.082;2023-03-14T14:16:53;10.20;99.90
5086;DHT22;4715;51.660;7.082;2023-03-14T14:19:16;10.20;99.90
5086;DHT22;4715;51.660;7.082;2023-03-14T14:21:41;10.30;99.90
5086;DHT22;4715;51.660;7.082;2023-03-14T14:24:04;10.40;99.90
5086;DHT22;4715;51.660;7.082;2023-03-14T14:26:27;11.00;99.90
5086;DHT22;4715;51.660;7.082;2023-03-14T14:28:59;11.90;99.90
5086;DHT22;4715;51.660;7.082;2023-03-14T14:31:22;12.70;99.90
5086;DHT22;4715;51.660;7.082;2023-03-14T14:33:52;13.30;99.90
5086;DHT22;4715;51.660;7.082;2023-03-14T14:36:28;13.80;99.90
5086;DHT22;4715;51.660;7.082;2023-03-14T14:38:56;14.40;99.90
5086;DHT22;4715;51.660;7.082;2023-03-14T14:41:19;14.80;99.90
5086;DHT22;4715;51.660;7.082;2023-03-14T14:43:41;14.80;99.90
5086;DHT22;4715;51.660;7.082;2023-03-14T14:46:06;14.70;99.90
5086;DHT22;4715;51.660;7.082;2023-03-14T14:48:29;14.40;99.90
5086;DHT22;4715;51.660;7.082;2023-03-14T14:50:57;14.10;99.90
5086;DHT22;4715;51.660;7.082;2023-03-14T14:53:22;14.00;99.90
5086;DHT22;4715;51.660;7.082;2023-03-14T14:55:53;14.10;99.90
5086;DHT22;4715;51.660;7.082;2023-03-14T14:58:20;14.60;99.90
5086;DHT22;4715;51.660;7.082;2023-03-14T15:00:51;15.10;99.90
5086;DHT22;4715;51.660;7.082;2023-03-14T15:03:15;15.50;99.90
5086;DHT22;4715;51.660;7.082;2023-03-14T15:05:38;15.90;99.90
5086;DHT22;4715;51.660;7.082;2023-03-14T15:08:02;16.30;99.90
5086;DHT22;4715;51.660;7.082;2023-03-14T15:10:25;16.30;99.90
5086;DHT22;4715;51.660;7.082;2023-03-14T15:12:48;15.90;99.00
5086;DHT22;4715;51.660;7.082;2023-03-14T15:15:11;15.40;98.60
5086;DHT22;4715;51.660;7.082;2023-03-14T15:17:33;15.10;98.20
5086;DHT22;4715;51.660;7.082;2023-03-14T15:19:56;14.90;96.60
5086;DHT22;4715;51.660;7.082;2023-03-14T15:22:19;15.10;98.10
5086;DHT22;4715;51.660;7.082;2023-03-14T15:24:40;15.50;98.20
5086;DHT22;4715;51.660;7.082;2023-03-14T15:27:03;15.80;96.60
5086;DHT22;4715;51.660;7.082;2023-03-14T15:29:28;15.60;92.30
5086;DHT22;4715;51.660;7.082;2023-03-14T15:31:52;15.00;92.10
5086;DHT22;4715;51.660;7.082;2023-03-14T15:34:13;14.50;90.80
5086;DHT22;4715;51.660;7.082;2023-03-14T15:36:37;14.10;91.00
5086;DHT22;4715;51.660;7.082;2023-03-14T15:38:59;13.80;90.80
5086;DHT22;4715;51.660;7.082;2023-03-14T15:41:22;13.30;86.50
5086;DHT22;4715;51.660;7.082;2023-03-14T15:43:44;12.90;87.10
5086;DHT22;4715;51.660;7.082;2023-03-14T15:46:09;12.60;87.90
5086;DHT22;4715;51.660;7.082;2023-03-14T15:48:32;12.40;87.80
5086;DHT22;4715;51.660;7.082;2023-03-14T15:50:54;12.10;86.70
5086;DHT22;4715;51.660;7.082;2023-03-14T15:53:16;11.80;86.50
5086;DHT22;4715;51.660;7.082;2023-03-14T15:55:40;11.70;85.70
5086;DHT22;4715;51.660;7.082;2023-03-14T15:58:02;11.60;86.40
5086;DHT22;4715;51.660;7.082;2023-03-14T16:00:24;11.50;85.90